createdAt,value
2023-03-06T00:00:56.156Z,0.57
2023-03-06T00:03:27.618Z,0.93
2023-03-06T00:05:59.389Z,0.32
2023-03-06T00:08:28.937Z,0.17
2023-03-06T00:10:57.237Z,2.05
2023-03-06T00:13:27.077Z,0.38
2023-03-06T00:15:55.181Z,1.15
2023-03-06T00:18:22.994Z,0.43
2023-03-06T00:20:50.781Z,3.15
2023-03-06T00:23:19.851Z,0.63
2023-03-06T00:25:47.665Z,0.50
2023-03-06T00:28:15.847Z,0.60
2023-03-06T00:30:45.982Z,1.85
2023-03-06T00:33:14.087Z,0.75
2023-03-06T00:35:42.498Z,0.20
2023-03-06T00:38:12.463Z,0.10
2023-03-06T00:40:41.684Z,1.02
2023-03-06T00:43:09.422Z,1.10
2023-03-06T00:45:37.505Z,0.65
2023-03-06T00:48:06.509Z,0.52
2023-03-06T00:50:35.211Z,1.38
2023-03-06T00:53:03.302Z,0.82
2023-03-06T00:55:33.351Z,3.22
2023-03-06T00:58:02.559Z,0.25
2023-03-06T01:00:30.342Z,2.35
2023-03-06T01:02:58.125Z,3.92
2023-03-06T01:05:26.505Z,0.40
2023-03-06T01:07:54.395Z,0.00
2023-03-06T01:10:23.110Z,0.40
2023-03-06T01:12:50.962Z,1.13
2023-03-06T01:15:21.395Z,0.17
2023-03-06T01:17:49.654Z,1.58
2023-03-06T01:20:18.691Z,0.90
2023-03-06T01:22:48.126Z,2.20
2023-03-06T01:25:16.135Z,0.68
2023-03-06T01:27:44.052Z,2.35
2023-03-06T01:30:13.469Z,1.05
2023-03-06T01:32:43.082Z,3.80
2023-03-06T01:35:11.990Z,0.30
2023-03-06T01:37:41.729Z,2.40
2023-03-06T01:40:13.636Z,0.65
2023-03-06T01:42:42.127Z,3.25
2023-03-06T01:45:49.502Z,0.63
2023-03-06T01:48:21.694Z,1.17
2023-03-06T01:50:52.703Z,2.65
2023-03-06T01:53:21.747Z,0.35
2023-03-06T01:55:49.876Z,1.23
2023-03-06T01:58:20.737Z,0.68
2023-03-06T02:00:49.691Z,0.10
2023-03-06T02:03:26.462Z,0.15
2023-03-06T02:05:55.958Z,3.13
2023-03-06T02:08:26.543Z,1.05
2023-03-06T02:11:02.553Z,0.80
2023-03-06T02:13:32.091Z,2.95
2023-03-06T02:16:00.685Z,3.08
2023-03-06T02:18:31.754Z,1.17
2023-03-06T02:21:03.459Z,1.17
2023-03-06T02:23:37.455Z,2.72
2023-03-06T02:26:09.938Z,5.05
2023-03-06T02:28:37.962Z,0.77
2023-03-06T02:31:06.729Z,0.43
2023-03-06T02:33:34.773Z,2.10
2023-03-06T02:36:04.700Z,3.08
2023-03-06T02:38:37.927Z,2.45
2023-03-06T02:41:09.715Z,0.57
2023-03-06T02:43:40.206Z,0.52
2023-03-06T02:46:08.326Z,2.53
2023-03-06T02:48:36.296Z,0.38
2023-03-06T02:51:04.282Z,0.65
2023-03-06T02:53:33.504Z,0.17
2023-03-06T02:56:01.876Z,7.47
2023-03-06T02:58:31.346Z,0.30
2023-03-06T03:01:00.507Z,0.77
2023-03-06T03:03:29.840Z,0.93
2023-03-06T03:05:58.952Z,1.15
2023-03-06T03:08:30.710Z,0.35
2023-03-06T03:11:02.773Z,4.70
2023-03-06T03:13:39.268Z,1.92
2023-03-06T03:16:14.043Z,9.45
2023-03-06T03:18:44.385Z,18.13
2023-03-06T03:21:14.467Z,0.52
2023-03-06T03:23:42.799Z,2.85
2023-03-06T03:26:14.057Z,2.03
2023-03-06T03:28:47.977Z,1.95
2023-03-06T03:31:18.747Z,2.03
2023-03-06T03:33:46.686Z,1.80
2023-03-06T03:36:14.729Z,2.53
2023-03-06T03:38:46.386Z,0.35
2023-03-06T03:41:15.168Z,0.40
2023-03-06T03:43:43.686Z,1.55
2023-03-06T03:46:12.933Z,0.35
2023-03-06T03:48:41.522Z,1.45
2023-03-06T03:51:12.567Z,2.08
2023-03-06T03:53:45.146Z,0.75
2023-03-06T03:56:16.001Z,0.22
2023-03-06T03:58:52.981Z,0.63
2023-03-06T04:01:23.204Z,1.02
2023-03-06T04:03:51.080Z,0.20
2023-03-06T04:06:20.174Z,2.05
2023-03-06T04:08:48.904Z,0.30
2023-03-06T04:11:17.241Z,3.35
2023-03-06T04:13:45.417Z,2.20
2023-03-06T04:16:13.381Z,0.32
2023-03-06T04:18:43.803Z,2.42
2023-03-06T04:21:11.877Z,4.00
2023-03-06T04:23:39.993Z,0.95
2023-03-06T04:26:08.531Z,6.93
2023-03-06T04:28:36.457Z,1.58
2023-03-06T04:31:04.465Z,2.42
2023-03-06T04:33:33.134Z,0.60
2023-03-06T04:36:02.752Z,1.50
2023-03-06T04:38:33.311Z,5.82
2023-03-06T04:41:04.120Z,0.20
2023-03-06T04:43:32.355Z,2.50
2023-03-06T04:46:00.217Z,0.45
2023-03-06T04:48:28.233Z,0.40
2023-03-06T04:50:56.133Z,0.75
2023-03-06T04:53:25.499Z,0.15
2023-03-06T04:55:53.241Z,1.95
2023-03-06T04:58:21.091Z,7.93
2023-03-06T05:00:48.945Z,3.42
2023-03-06T05:03:16.799Z,0.20
2023-03-06T05:05:44.711Z,1.13
2023-03-06T05:08:15.232Z,4.40
2023-03-06T05:10:45.310Z,0.55
2023-03-06T05:13:13.388Z,0.98
2023-03-06T05:15:42.006Z,1.73
2023-03-06T05:18:10.065Z,3.00
2023-03-06T05:20:37.914Z,2.92
2023-03-06T05:23:05.667Z,1.35
2023-03-06T05:25:33.381Z,2.78
2023-03-06T05:28:02.532Z,1.52
2023-03-06T05:30:30.278Z,0.85
2023-03-06T05:32:57.966Z,3.78
2023-03-06T05:35:25.933Z,3.20
2023-03-06T05:37:53.801Z,3.42
2023-03-06T05:40:22.090Z,1.00
2023-03-06T05:42:49.821Z,0.88
2023-03-06T05:45:19.047Z,1.80
2023-03-06T05:47:46.850Z,1.17
2023-03-06T05:50:14.998Z,4.85
2023-03-06T05:52:42.848Z,1.27
2023-03-06T05:55:12.969Z,3.35
2023-03-06T05:57:40.921Z,2.00
2023-03-06T06:00:10.878Z,1.98
2023-03-06T06:02:43.468Z,4.53
2023-03-06T06:05:13.050Z,0.52
2023-03-06T06:07:41.148Z,1.17
2023-03-06T06:10:10.681Z,3.53
2023-03-06T06:12:38.545Z,6.60
2023-03-06T06:15:07.768Z,1.38
2023-03-06T06:17:35.687Z,1.02
2023-03-06T06:20:05.363Z,2.55
2023-03-06T06:22:36.196Z,1.40
2023-03-06T06:25:04.178Z,0.70
2023-03-06T06:27:31.995Z,4.18
2023-03-06T06:29:59.984Z,2.20
2023-03-06T06:32:27.826Z,4.22
2023-03-06T06:34:56.164Z,2.22
2023-03-06T06:37:26.029Z,1.92
2023-03-06T06:39:54.006Z,0.77
2023-03-06T06:42:31.426Z,5.43
2023-03-06T06:45:02.304Z,1.20
2023-03-06T06:47:30.376Z,2.55
2023-03-06T06:49:58.597Z,1.95
2023-03-06T06:52:27.770Z,2.17
2023-03-06T06:54:55.761Z,1.73
2023-03-06T06:57:23.786Z,2.42
2023-03-06T06:59:53.947Z,1.52
2023-03-06T07:02:22.565Z,3.08
2023-03-06T07:05:03.017Z,2.45
2023-03-06T07:07:35.867Z,2.42
2023-03-06T07:10:05.823Z,2.78
2023-03-06T07:12:35.453Z,1.58
2023-03-06T07:15:05.565Z,3.10
2023-03-06T07:17:34.600Z,7.82
2023-03-06T07:20:03.891Z,1.75
2023-03-06T07:22:49.987Z,11.07
2023-03-06T07:25:20.097Z,0.88
2023-03-06T07:27:53.680Z,2.13
2023-03-06T07:30:23.903Z,9.77
2023-03-06T07:32:55.291Z,3.20
2023-03-06T07:35:25.095Z,4.45
2023-03-06T07:38:51.029Z,2.78
2023-03-06T07:42:20.937Z,2.10
2023-03-06T07:45:13.074Z,2.42
2023-03-06T07:50:37.317Z,4.57
2023-03-06T07:53:13.658Z,13.00
2023-03-06T07:55:58.457Z,3.58
2023-03-06T07:58:27.436Z,3.75
2023-03-06T08:00:58.462Z,4.90
2023-03-06T08:03:28.722Z,1.50
2023-03-06T08:06:06.360Z,3.53
2023-03-06T08:08:34.898Z,3.95
2023-03-06T08:11:05.889Z,5.38
2023-03-06T08:13:48.542Z,3.28
2023-03-06T08:16:18.445Z,2.15
2023-03-06T08:18:46.707Z,5.82
2023-03-06T08:21:16.716Z,2.58
2023-03-06T08:23:45.408Z,7.80
2023-03-06T08:26:15.214Z,3.50
2023-03-06T08:28:43.614Z,2.70
2023-03-06T08:31:14.027Z,3.08
2023-03-06T08:33:43.314Z,2.05
2023-03-06T08:36:11.175Z,3.72
2023-03-06T08:38:38.958Z,3.35
2023-03-06T08:41:06.850Z,2.47
2023-03-06T08:43:35.827Z,0.47
2023-03-06T08:46:03.961Z,0.50
2023-03-06T08:48:31.823Z,1.83
2023-03-06T08:51:01.049Z,0.10
2023-03-06T08:53:42.204Z,0.45
2023-03-06T08:56:16.611Z,0.03
2023-03-06T08:58:44.474Z,0.10
2023-03-06T09:01:14.743Z,0.30
2023-03-06T09:03:42.757Z,0.63
2023-03-06T09:06:12.104Z,0.00
2023-03-06T09:08:42.970Z,0.03
2023-03-06T09:11:10.884Z,0.73
2023-03-06T09:13:38.713Z,0.20
2023-03-06T09:16:07.424Z,1.52
2023-03-06T09:18:35.295Z,1.13
2023-03-06T09:21:03.934Z,1.95
2023-03-06T09:23:33.518Z,1.35
2023-03-06T09:26:02.330Z,0.45
2023-03-06T09:28:30.320Z,0.88
2023-03-06T09:30:58.243Z,0.30
2023-03-06T09:33:26.232Z,0.22
2023-03-06T09:35:55.794Z,0.00
2023-03-06T09:38:26.497Z,0.00
2023-03-06T09:43:38.717Z,0.10
2023-03-06T09:46:20.312Z,0.00
2023-03-06T09:48:59.142Z,0.00
2023-03-06T09:51:35.291Z,0.00
2023-03-06T09:54:08.745Z,1.25
2023-03-06T09:56:38.360Z,1.17
2023-03-06T09:59:13.427Z,0.73
2023-03-06T10:01:43.157Z,0.00
2023-03-06T10:04:25.219Z,0.00
2023-03-06T10:06:57.677Z,0.00
2023-03-06T10:09:30.518Z,0.40
2023-03-06T10:12:03.798Z,0.10
2023-03-06T10:14:38.256Z,0.45
2023-03-06T10:17:07.379Z,0.10
2023-03-06T10:19:36.890Z,0.15
2023-03-06T10:22:13.289Z,1.00
2023-03-06T10:24:49.184Z,0.00
2023-03-06T10:27:35.553Z,2.28
2023-03-06T10:30:19.055Z,0.90
2023-03-06T10:32:52.562Z,1.02
2023-03-06T10:35:25.901Z,0.82
2023-03-06T10:38:01.342Z,0.10
2023-03-06T10:40:36.308Z,0.30
2023-03-06T10:43:12.404Z,0.60
2023-03-06T10:45:52.193Z,0.10
2023-03-06T10:48:23.120Z,0.00
2023-03-06T10:50:51.759Z,0.00
2023-03-06T10:53:26.103Z,0.00
2023-03-06T10:55:56.113Z,0.00
2023-03-06T10:58:28.197Z,0.00
2023-03-06T11:01:08.716Z,0.35
2023-03-06T11:03:37.521Z,0.55
2023-03-06T11:06:13.050Z,0.20
2023-03-06T11:08:42.650Z,0.00
2023-03-06T11:11:14.010Z,0.00
2023-03-06T11:13:44.828Z,1.00
2023-03-06T11:16:20.199Z,0.70
2023-03-06T11:18:59.172Z,0.30
2023-03-06T11:21:31.704Z,0.25
2023-03-06T11:24:06.817Z,1.23
2023-03-06T11:26:44.673Z,1.65
2023-03-06T11:29:39.170Z,0.00
2023-03-06T11:32:13.354Z,0.08
2023-03-06T11:34:50.528Z,0.00
2023-03-06T11:37:26.896Z,0.70
2023-03-06T11:40:02.048Z,0.00
2023-03-06T11:42:33.783Z,3.30
2023-03-06T11:45:20.830Z,0.30
2023-03-06T11:47:53.609Z,0.22
2023-03-06T11:50:28.559Z,0.13
2023-03-06T11:52:59.680Z,1.02
2023-03-06T11:55:41.320Z,0.20
2023-03-06T11:58:47.306Z,1.20
2023-03-06T12:01:24.346Z,0.00
2023-03-06T12:04:20.554Z,0.00
2023-03-06T12:06:56.040Z,1.55
2023-03-06T12:09:29.801Z,1.20
2023-03-06T12:12:22.646Z,0.20
2023-03-06T12:15:16.927Z,0.35
2023-03-06T12:18:11.555Z,0.40
2023-03-06T12:20:54.509Z,1.63
2023-03-06T12:23:33.636Z,0.00
2023-03-06T12:26:07.281Z,0.08
2023-03-06T12:28:55.390Z,0.52
2023-03-06T12:31:44.983Z,1.30
2023-03-06T12:34:27.919Z,0.17
2023-03-06T12:37:05.510Z,0.30
2023-03-06T12:39:45.374Z,0.88
2023-03-06T12:42:27.835Z,0.10
2023-03-06T12:45:37.185Z,3.13
2023-03-06T12:48:11.255Z,0.20
2023-03-06T12:50:44.336Z,0.10
2023-03-06T12:53:16.334Z,0.57
2023-03-06T12:55:46.734Z,0.57
2023-03-06T12:58:35.679Z,0.50
2023-03-06T13:01:08.241Z,0.00
2023-03-06T13:03:49.252Z,0.00
2023-03-06T13:06:50.171Z,0.70
2023-03-06T13:09:30.646Z,0.38
2023-03-06T13:12:13.986Z,2.72
2023-03-06T13:14:59.742Z,0.10
2023-03-06T13:17:36.828Z,0.95
2023-03-06T13:20:29.413Z,0.73
2023-03-06T13:22:58.852Z,0.30
2023-03-06T13:25:48.618Z,2.72
2023-03-06T13:28:39.184Z,0.95
2023-03-06T13:31:10.639Z,4.57
2023-03-06T13:33:57.671Z,0.00
2023-03-06T13:36:31.445Z,0.10
2023-03-06T13:39:06.548Z,0.00
2023-03-06T13:41:54.444Z,0.95
2023-03-06T13:44:45.934Z,0.10
2023-03-06T13:47:45.061Z,0.05
2023-03-06T13:50:39.631Z,0.15
2023-03-06T13:53:59.902Z,0.10
2023-03-06T13:56:55.582Z,1.48
2023-03-06T13:59:54.404Z,3.85
2023-03-06T14:02:55.071Z,0.00
2023-03-06T14:05:23.812Z,0.40
2023-03-06T14:08:06.732Z,0.05
2023-03-06T14:10:36.439Z,0.28
2023-03-06T14:13:14.296Z,0.30
2023-03-06T14:15:45.969Z,2.97
2023-03-06T14:18:21.765Z,0.70
2023-03-06T14:20:55.263Z,0.03
2023-03-06T14:23:30.409Z,0.60
2023-03-06T14:26:03.869Z,0.00
2023-03-06T14:28:35.941Z,0.22
2023-03-06T14:31:06.991Z,0.63
2023-03-06T14:33:42.891Z,0.32
2023-03-06T14:36:15.711Z,0.10
2023-03-06T14:38:46.403Z,0.35
2023-03-06T14:41:14.368Z,0.20
2023-03-06T14:43:43.613Z,0.00
2023-03-06T14:46:20.310Z,0.00
2023-03-06T14:48:49.855Z,1.33
2023-03-06T14:51:20.226Z,0.50
2023-03-06T14:53:49.852Z,0.00
2023-03-06T14:56:19.971Z,1.25
2023-03-06T14:58:55.296Z,0.28
2023-03-06T15:01:31.226Z,4.05
2023-03-06T15:04:01.174Z,0.03
2023-03-06T15:06:34.388Z,0.22
2023-03-06T15:09:07.844Z,0.10
2023-03-06T15:12:01.357Z,0.00
2023-03-06T15:14:36.977Z,0.65
2023-03-06T15:17:24.298Z,0.63
2023-03-06T15:19:55.241Z,0.43
2023-03-06T15:22:29.714Z,0.88
2023-03-06T15:25:18.909Z,1.40
2023-03-06T15:27:50.136Z,0.15
2023-03-06T15:30:32.405Z,1.83
2023-03-06T15:33:24.844Z,0.00
2023-03-06T15:35:54.896Z,1.58
2023-03-06T15:38:25.967Z,2.45
2023-03-06T15:40:58.157Z,0.40
2023-03-06T15:43:26.644Z,0.00
2023-03-06T15:46:00.113Z,1.95
2023-03-06T15:48:28.749Z,3.08
2023-03-06T15:50:56.637Z,2.03
2023-03-06T15:53:24.480Z,1.17
2023-03-06T15:55:53.350Z,0.00
2023-03-06T15:58:24.793Z,5.25
2023-03-06T16:00:52.660Z,3.33
2023-03-06T16:03:21.882Z,0.00
2023-03-06T16:05:49.834Z,3.03
2023-03-06T16:08:17.823Z,2.75
2023-03-06T16:10:47.399Z,2.28
2023-03-06T16:13:20.322Z,0.00
2023-03-06T16:15:50.268Z,0.50
2023-03-06T16:18:18.930Z,0.13
2023-03-06T16:20:48.413Z,0.98
2023-03-06T16:23:16.483Z,2.75
2023-03-06T16:25:48.688Z,1.80
2023-03-06T16:28:17.240Z,1.05
2023-03-06T16:30:45.726Z,0.20
2023-03-06T16:33:14.807Z,3.40
2023-03-06T16:35:46.448Z,0.57
2023-03-06T16:38:16.648Z,0.70
2023-03-06T16:40:44.899Z,0.70
2023-03-06T16:43:13.478Z,0.00
2023-03-06T16:45:42.766Z,0.47
2023-03-06T16:48:16.658Z,0.75
2023-03-06T16:50:44.889Z,2.13
2023-03-06T16:53:12.653Z,0.10
2023-03-06T16:55:42.178Z,0.00
2023-03-06T16:58:10.351Z,0.20
2023-03-06T17:00:38.156Z,1.92
2023-03-06T17:03:06.049Z,0.30
2023-03-06T17:05:34.386Z,0.85
2023-03-06T17:08:02.370Z,0.50
2023-03-06T17:10:30.408Z,1.00
2023-03-06T17:12:59.546Z,1.50
2023-03-06T17:15:27.306Z,0.25
2023-03-06T17:17:55.713Z,0.40
2023-03-06T17:20:23.765Z,0.20
2023-03-06T17:22:51.732Z,0.43
2023-03-06T17:25:19.685Z,0.30
2023-03-06T17:27:47.417Z,1.50
2023-03-06T17:30:16.858Z,0.65
2023-03-06T17:32:44.561Z,0.68
2023-03-06T17:35:12.413Z,1.48
2023-03-06T17:37:40.187Z,0.30
2023-03-06T17:40:10.270Z,0.95
2023-03-06T17:42:38.146Z,1.58
2023-03-06T17:45:09.211Z,0.52
2023-03-06T17:47:38.490Z,0.10
2023-03-06T17:50:06.876Z,0.38
2023-03-06T17:52:34.857Z,0.25
2023-03-06T17:55:02.620Z,2.97
2023-03-06T17:57:30.468Z,1.58
2023-03-06T17:59:58.323Z,0.10
2023-03-06T18:02:26.113Z,0.28
2023-03-06T18:04:56.562Z,1.52
2023-03-06T18:07:24.405Z,0.10
2023-03-06T18:09:52.183Z,1.17
2023-03-06T18:12:19.958Z,1.50
2023-03-06T18:14:48.598Z,0.95
2023-03-06T18:17:16.411Z,0.20
2023-03-06T18:19:44.201Z,1.45
2023-03-06T18:22:13.240Z,0.32
2023-03-06T18:24:41.114Z,1.85
2023-03-06T18:27:09.194Z,4.68
2023-03-06T18:29:37.078Z,3.53
2023-03-06T18:32:05.023Z,0.60
2023-03-06T18:34:35.349Z,0.93
2023-03-06T18:37:03.393Z,1.60
2023-03-06T18:39:35.143Z,0.60
2023-03-06T18:42:03.180Z,0.45
2023-03-06T18:44:31.429Z,5.10
2023-03-06T18:46:59.628Z,0.77
2023-03-06T18:49:27.515Z,1.45
2023-03-06T18:51:55.472Z,0.85
2023-03-06T18:54:24.659Z,1.98
2023-03-06T18:57:00.692Z,2.08
2023-03-06T18:59:28.655Z,1.98
2023-03-06T19:01:57.831Z,0.82
2023-03-06T19:04:29.217Z,1.13
2023-03-06T19:06:59.600Z,0.88
2023-03-06T19:09:27.447Z,2.05
2023-03-06T19:11:58.724Z,1.73
2023-03-06T19:14:28.245Z,1.42
2023-03-06T19:16:55.963Z,4.13
2023-03-06T19:19:26.248Z,3.97
2023-03-06T19:21:54.460Z,3.15
2023-03-06T19:24:22.208Z,1.70
2023-03-06T19:26:50.310Z,1.52
2023-03-06T19:29:19.455Z,1.33
2023-03-06T19:31:47.257Z,2.60
2023-03-06T19:34:15.261Z,1.50
2023-03-06T19:36:48.620Z,1.65
2023-03-06T19:39:18.793Z,2.38
2023-03-06T19:42:00.751Z,3.72
2023-03-06T19:48:10.017Z,1.08
2023-03-06T19:50:41.305Z,0.82
2023-03-06T19:53:12.605Z,2.47
2023-03-06T19:55:42.527Z,2.85
2023-03-06T19:58:11.118Z,2.58
2023-03-06T20:00:42.752Z,1.35
2023-03-06T20:03:11.562Z,3.17
2023-03-06T20:05:49.315Z,1.08
2023-03-06T20:08:17.416Z,1.17
2023-03-06T20:10:45.264Z,3.40
2023-03-06T20:13:15.198Z,4.10
2023-03-06T20:15:48.311Z,3.72
2023-03-06T20:18:16.100Z,3.85
2023-03-06T20:20:55.670Z,1.92
2023-03-06T20:23:26.633Z,0.93
2023-03-06T20:25:54.674Z,1.65
2023-03-06T20:28:24.408Z,2.78
2023-03-06T20:30:53.624Z,1.67
2023-03-06T20:33:22.261Z,2.22
2023-03-06T20:35:50.210Z,3.13
2023-03-06T20:38:18.099Z,1.33
2023-03-06T20:40:46.036Z,8.52
2023-03-06T20:43:13.906Z,2.88
2023-03-06T20:45:41.770Z,2.47
2023-03-06T20:48:11.213Z,1.92
2023-03-06T20:50:41.365Z,2.83
2023-03-06T20:53:09.516Z,1.88
2023-03-06T20:55:37.672Z,1.35
2023-03-06T20:58:05.496Z,3.10
2023-03-06T21:00:33.745Z,2.35
2023-03-06T21:03:01.716Z,1.52
2023-03-06T21:05:32.287Z,2.40
2023-03-06T21:08:00.186Z,2.70
2023-03-06T21:10:28.125Z,2.97
2023-03-06T21:12:55.948Z,3.42
2023-03-06T21:15:27.038Z,2.63
2023-03-06T21:17:54.818Z,4.40
2023-03-06T21:20:23.722Z,3.45
2023-03-06T21:22:52.867Z,3.10
2023-03-06T21:25:20.716Z,2.95
2023-03-06T21:27:49.209Z,2.58
2023-03-06T21:30:17.260Z,2.45
2023-03-06T21:32:45.140Z,3.17
2023-03-06T21:35:13.055Z,3.20
2023-03-06T21:37:41.110Z,2.47
2023-03-06T21:40:14.036Z,4.82
2023-03-06T21:42:42.303Z,4.20
2023-03-06T21:45:12.093Z,3.17
2023-03-06T21:47:40.951Z,5.22
2023-03-06T21:50:11.234Z,4.90
2023-03-06T21:52:39.043Z,11.13
2023-03-06T21:55:08.512Z,6.57
2023-03-06T21:57:38.006Z,5.53
2023-03-06T22:00:08.644Z,8.35
2023-03-06T22:02:39.270Z,7.50
2023-03-06T22:05:07.368Z,8.48
2023-03-06T22:07:36.448Z,12.13
2023-03-06T22:10:05.193Z,10.13
2023-03-06T22:12:34.424Z,11.57
2023-03-06T22:15:04.024Z,8.45
2023-03-06T22:17:32.543Z,8.38
2023-03-06T22:20:00.434Z,7.72
2023-03-06T22:22:28.483Z,15.05
2023-03-06T22:24:56.302Z,12.05
2023-03-06T22:27:24.409Z,14.98
2023-03-06T22:29:52.654Z,14.48
2023-03-06T22:32:23.174Z,14.52
2023-03-06T22:34:51.275Z,13.77
2023-03-06T22:37:19.135Z,15.18
2023-03-06T22:39:46.919Z,11.90
2023-03-06T22:42:15.037Z,12.57
2023-03-06T22:44:42.829Z,13.05
2023-03-06T22:47:10.722Z,12.77
2023-03-06T22:49:40.278Z,14.40
2023-03-06T22:52:08.327Z,14.98
2023-03-06T22:54:36.487Z,11.63
2023-03-06T22:57:04.505Z,13.80
2023-03-06T22:59:32.288Z,15.85
2023-03-06T23:02:00.033Z,12.68
2023-03-06T23:04:28.283Z,9.85
2023-03-06T23:06:57.500Z,15.15
2023-03-06T23:09:25.552Z,14.23
2023-03-06T23:12:12.216Z,13.63
2023-03-06T23:14:58.551Z,10.80
2023-03-06T23:17:44.903Z,16.58
2023-03-06T23:20:31.313Z,15.20
2023-03-06T23:23:19.586Z,14.00
2023-03-06T23:25:47.417Z,15.77
2023-03-06T23:28:15.624Z,13.18
2023-03-06T23:30:43.623Z,15.18
2023-03-06T23:33:12.399Z,17.35
2023-03-06T23:35:46.580Z,12.60
2023-03-06T23:38:14.440Z,15.00
2023-03-06T23:40:43.942Z,12.85
2023-03-06T23:43:14.041Z,16.05
2023-03-06T23:45:41.856Z,13.05
2023-03-06T23:48:09.702Z,12.38
2023-03-06T23:50:41.100Z,12.18
2023-03-06T23:53:09.116Z,11.23
2023-03-06T23:55:36.930Z,11.77
2023-03-06T23:58:06.664Z,11.80
